createdAt,value
2019-02-26T00:04:05.248Z,5.60
2019-02-26T00:09:06.902Z,5.80
2019-02-26T00:14:07.099Z,6.10
2019-02-26T00:16:39.756Z,6.20
2019-02-26T00:19:09.783Z,6.30
2019-02-26T00:21:40.076Z,6.20
2019-02-26T00:24:11.909Z,6.20
2019-02-26T00:26:42.797Z,6.10
2019-02-26T00:29:12.361Z,6.10
2019-02-26T00:31:43.404Z,6.00
2019-02-26T00:34:15.958Z,5.90
2019-02-26T00:36:44.667Z,5.60
2019-02-26T00:39:14.224Z,5.50
2019-02-26T00:44:12.962Z,5.20
2019-02-26T00:46:42.525Z,5.20
2019-02-26T00:49:12.350Z,5.00
2019-02-26T00:51:45.929Z,5.10
2019-02-26T00:54:13.137Z,5.00
2019-02-26T00:59:11.637Z,5.00
2019-02-26T01:04:11.998Z,5.10
2019-02-26T01:06:41.571Z,5.10
2019-02-26T01:09:13.827Z,5.10
2019-02-26T01:11:45.053Z,5.10
2019-02-26T01:14:15.776Z,5.10
2019-02-26T01:16:48.087Z,5.10
2019-02-26T01:19:18.055Z,5.10
2019-02-26T01:24:17.739Z,5.10
2019-02-26T01:29:18.513Z,5.00
2019-02-26T01:34:18.135Z,4.90
2019-02-26T01:36:49.544Z,4.80
2019-02-26T01:39:21.584Z,4.80
2019-02-26T01:41:53.310Z,4.90
2019-02-26T01:44:21.919Z,5.00
2019-02-26T01:46:53.318Z,5.10
2019-02-26T01:49:23.731Z,5.30
2019-02-26T01:51:54.254Z,5.40
2019-02-26T01:54:24.097Z,5.50
2019-02-26T01:59:23.042Z,5.80
2019-02-26T02:04:23.430Z,6.10
2019-02-26T02:06:54.913Z,6.20
2019-02-26T02:09:25.143Z,6.40
2019-02-26T02:14:23.605Z,6.50
2019-02-26T02:16:53.415Z,6.50
2019-02-26T02:19:25.184Z,6.40
2019-02-26T02:24:24.997Z,6.40
2019-02-26T02:26:55.584Z,6.00
2019-02-26T02:29:28.043Z,5.60
2019-02-26T02:32:01.404Z,5.10
2019-02-26T02:34:29.586Z,4.90
2019-02-26T02:41:58.798Z,4.90
2019-02-26T02:44:28.329Z,5.00
2019-02-26T02:46:59.071Z,5.10
2019-02-26T02:52:01.457Z,5.10
2019-02-26T02:54:31.079Z,4.80
2019-02-26T02:59:33.987Z,4.70
2019-02-26T03:04:34.580Z,4.80
2019-02-26T03:07:03.286Z,4.90
2019-02-26T03:09:37.206Z,5.00
2019-02-26T03:12:04.038Z,5.10
2019-02-26T03:14:38.335Z,5.00
2019-02-26T03:17:08.363Z,5.20
2019-02-26T03:19:40.407Z,5.20
2019-02-26T03:24:39.546Z,5.30
2019-02-26T03:27:09.095Z,5.40
2019-02-26T03:32:08.933Z,5.70
2019-02-26T03:42:10.603Z,5.80
2019-02-26T03:44:46.188Z,5.80
2019-02-26T03:47:16.260Z,5.90
2019-02-26T03:54:47.975Z,5.90
2019-02-26T03:59:48.615Z,5.90
2019-02-26T04:02:20.231Z,5.80
2019-02-26T04:12:20.916Z,6.00
2019-02-26T04:14:50.802Z,6.10
2019-02-26T04:17:23.157Z,6.20
2019-02-26T04:19:51.557Z,6.30
2019-02-26T04:22:28.562Z,6.30
2019-02-26T04:27:52.987Z,6.30
2019-02-26T04:30:59.111Z,6.40
2019-02-26T04:33:50.243Z,6.40
2019-02-26T04:36:47.593Z,6.40
2019-02-26T04:39:53.561Z,6.50
2019-02-26T04:43:18.102Z,6.50
2019-02-26T04:46:25.559Z,6.40
2019-02-26T04:48:56.210Z,6.40
2019-02-26T04:51:25.794Z,6.30
2019-02-26T04:53:56.136Z,6.30
2019-02-26T05:03:55.040Z,6.50
2019-02-26T05:06:24.583Z,6.60
2019-02-26T05:08:56.929Z,6.50
2019-02-26T05:11:31.394Z,6.50
2019-02-26T05:13:56.901Z,6.50
2019-02-26T05:18:58.456Z,5.00
2019-02-26T05:21:30.396Z,4.80
2019-02-26T05:24:02.952Z,4.80
2019-02-26T05:26:32.150Z,5.00
2019-02-26T05:29:01.715Z,5.20
2019-02-26T05:31:33.199Z,5.30
2019-02-26T05:34:02.753Z,5.20
2019-02-26T05:36:34.349Z,5.10
2019-02-26T05:39:04.701Z,5.20
2019-02-26T05:44:06.613Z,5.20
2019-02-26T05:46:34.645Z,5.20
2019-02-26T05:49:06.829Z,5.30
2019-02-26T05:54:08.036Z,5.50
2019-02-26T05:56:40.762Z,5.60
2019-02-26T06:01:41.230Z,5.50
2019-02-26T06:09:10.585Z,5.20
2019-02-26T06:11:42.860Z,5.10
2019-02-26T06:24:15.147Z,5.00
2019-02-26T06:26:45.539Z,5.10
2019-02-26T06:31:46.813Z,5.20
2019-02-26T06:34:16.317Z,5.30
2019-02-26T06:36:48.939Z,5.40
2019-02-26T06:39:22.239Z,5.50
2019-02-26T06:41:51.281Z,5.50
2019-02-26T06:44:26.038Z,5.60
2019-02-26T06:46:55.762Z,5.60
2019-02-26T06:49:26.894Z,5.10
2019-02-26T06:51:57.105Z,4.20
2019-02-26T06:54:28.910Z,3.70
2019-02-26T06:56:57.977Z,3.40
2019-02-26T06:59:33.852Z,3.10
2019-02-26T07:04:31.329Z,2.60
2019-02-26T07:07:02.446Z,2.60
2019-02-26T07:09:36.939Z,2.60
2019-02-26T07:12:07.522Z,2.50
2019-02-26T07:14:37.136Z,2.50
2019-02-26T07:22:08.302Z,2.80
2019-02-26T07:24:41.801Z,3.00
2019-02-26T07:29:44.368Z,3.50
2019-02-26T07:32:14.783Z,3.40
2019-02-26T07:34:45.263Z,3.50
2019-02-26T07:37:15.913Z,3.50
2019-02-26T07:39:47.188Z,3.80
2019-02-26T07:42:18.801Z,4.30
2019-02-26T07:44:48.122Z,5.40
2019-02-26T07:47:17.818Z,6.80
2019-02-26T07:49:47.377Z,8.40
2019-02-26T07:52:17.205Z,9.30
2019-02-26T07:54:47.570Z,10.40
2019-02-26T07:57:20.171Z,10.50
2019-02-26T07:59:50.201Z,11.30
2019-02-26T08:02:19.902Z,14.50
2019-02-26T08:04:49.446Z,14.70
2019-02-26T08:07:21.504Z,15.70
2019-02-26T08:09:50.553Z,15.90
2019-02-26T08:12:20.177Z,16.40
2019-02-26T08:14:50.173Z,17.00
2019-02-26T08:17:19.802Z,17.90
2019-02-26T08:19:49.499Z,18.40
2019-02-26T08:22:20.320Z,18.70
2019-02-26T08:24:50.869Z,19.00
2019-02-26T08:27:21.102Z,17.50
2019-02-26T08:29:51.800Z,15.80
2019-02-26T08:32:23.950Z,15.30
2019-02-26T08:34:53.398Z,17.60
2019-02-26T08:37:23.235Z,16.90
2019-02-26T08:39:54.942Z,18.50
2019-02-26T08:42:24.045Z,18.60
2019-02-26T08:44:55.854Z,16.20
2019-02-26T08:47:25.125Z,11.90
2019-02-26T08:49:54.685Z,14.20
2019-02-26T08:52:26.470Z,13.30
2019-02-26T08:54:55.741Z,12.20
2019-02-26T08:57:25.297Z,11.80
2019-02-26T08:59:55.154Z,11.20
2019-02-26T09:02:24.750Z,11.00
2019-02-26T09:04:54.309Z,10.80
2019-02-26T09:07:26.170Z,10.60
2019-02-26T09:09:57.571Z,10.50
2019-02-26T09:12:27.384Z,10.60
2019-02-26T09:17:29.363Z,10.60
2019-02-26T09:24:59.920Z,10.70
2019-02-26T09:27:32.117Z,10.70
2019-02-26T09:30:03.482Z,10.70
2019-02-26T09:32:35.020Z,10.70
2019-02-26T09:35:05.350Z,10.70
2019-02-26T09:37:35.298Z,10.60
2019-02-26T09:42:34.675Z,10.50
2019-02-26T09:47:33.841Z,10.40
2019-02-26T09:50:03.498Z,10.80
2019-02-26T09:52:33.103Z,10.80
2019-02-26T09:55:03.033Z,11.00
2019-02-26T09:57:32.648Z,11.20
2019-02-26T10:00:03.245Z,11.30
2019-02-26T10:02:33.635Z,11.30
2019-02-26T10:05:03.734Z,11.40
2019-02-26T10:10:13.577Z,11.60
2019-02-26T10:15:12.194Z,12.00
2019-02-26T10:17:42.845Z,12.10
2019-02-26T10:20:20.022Z,12.20
2019-02-26T10:22:49.569Z,12.40
2019-02-26T10:25:21.170Z,12.50
2019-02-26T10:27:50.415Z,12.50
2019-02-26T10:30:20.002Z,12.60
2019-02-26T10:32:49.991Z,12.60
2019-02-26T10:35:25.626Z,12.70
2019-02-26T10:37:52.969Z,12.60
2019-02-26T10:40:22.679Z,12.70
2019-02-26T10:42:52.398Z,12.80
2019-02-26T10:45:24.731Z,13.00
2019-02-26T10:47:56.682Z,12.90
2019-02-26T10:50:31.037Z,13.10
2019-02-26T10:53:06.561Z,13.00
2019-02-26T10:55:35.319Z,13.10
2019-02-26T11:00:34.811Z,13.30
2019-02-26T11:05:31.854Z,13.40
2019-02-26T11:08:02.907Z,13.50
2019-02-26T11:10:32.637Z,13.60
2019-02-26T11:13:02.325Z,13.70
2019-02-26T11:15:35.424Z,13.70
2019-02-26T11:18:03.961Z,13.70
2019-02-26T11:20:34.369Z,13.60
2019-02-26T11:28:10.636Z,13.70
2019-02-26T11:30:40.109Z,13.90
2019-02-26T11:33:11.348Z,13.90
2019-02-26T11:35:44.344Z,14.00
2019-02-26T11:38:16.510Z,14.10
2019-02-26T11:40:45.993Z,14.20
2019-02-26T11:43:19.361Z,14.30
2019-02-26T11:45:46.974Z,14.40
2019-02-26T11:48:17.620Z,14.10
2019-02-26T11:50:47.340Z,14.60
2019-02-26T11:53:17.465Z,14.70
2019-02-26T11:55:49.331Z,14.70
2019-02-26T11:58:19.940Z,14.80
2019-02-26T12:00:52.431Z,15.70
2019-02-26T12:03:24.940Z,15.30
2019-02-26T12:08:25.718Z,14.90
2019-02-26T12:11:01.036Z,15.10
2019-02-26T12:13:27.840Z,15.20
2019-02-26T12:15:57.925Z,14.30
2019-02-26T12:18:28.361Z,15.20
2019-02-26T12:20:59.997Z,15.30
2019-02-26T12:23:29.641Z,15.40
2019-02-26T12:26:01.100Z,15.50
2019-02-26T12:28:33.480Z,15.60
2019-02-26T12:31:04.334Z,15.60
2019-02-26T12:33:36.703Z,15.60
2019-02-26T12:36:07.449Z,15.70
2019-02-26T12:38:38.747Z,15.90
2019-02-26T12:41:09.663Z,15.90
2019-02-26T12:43:43.363Z,15.90
2019-02-26T12:46:12.755Z,16.00
2019-02-26T12:48:46.472Z,16.00
2019-02-26T12:51:13.714Z,16.10
2019-02-26T12:53:49.619Z,16.20
2019-02-26T12:56:17.936Z,16.30
2019-02-26T12:58:48.352Z,16.50
2019-02-26T13:01:21.093Z,16.50
2019-02-26T13:03:54.626Z,16.60
2019-02-26T13:06:22.965Z,16.40
2019-02-26T13:08:53.145Z,16.50
2019-02-26T13:11:24.909Z,16.60
2019-02-26T13:13:53.949Z,16.60
2019-02-26T13:16:24.245Z,16.70
2019-02-26T13:18:58.596Z,16.70
2019-02-26T13:21:25.046Z,16.70
2019-02-26T13:23:58.496Z,16.70
2019-02-26T13:26:27.969Z,16.90
2019-02-26T13:29:00.489Z,16.90
2019-02-26T13:31:34.056Z,16.90
2019-02-26T13:34:04.568Z,17.00
2019-02-26T13:36:36.366Z,17.10
2019-02-26T13:39:07.383Z,17.20
2019-02-26T13:41:39.068Z,17.10
2019-02-26T13:44:08.991Z,17.20
2019-02-26T13:46:40.571Z,17.20
2019-02-26T13:49:10.297Z,17.20
2019-02-26T13:51:40.249Z,17.20
2019-02-26T13:54:10.270Z,17.30
2019-02-26T13:56:40.323Z,17.40
2019-02-26T13:59:10.041Z,17.50
2019-02-26T14:01:40.737Z,17.40
2019-02-26T14:04:10.324Z,17.50
2019-02-26T14:06:42.381Z,17.50
2019-02-26T14:09:12.731Z,17.50
2019-02-26T14:11:42.363Z,17.40
2019-02-26T14:14:11.990Z,17.50
2019-02-26T14:16:42.865Z,17.70
2019-02-26T14:19:13.495Z,17.60
2019-02-26T14:21:43.090Z,17.60
2019-02-26T14:24:13.153Z,17.60
2019-02-26T14:26:42.755Z,17.70
2019-02-26T14:29:12.316Z,17.90
2019-02-26T14:31:42.191Z,17.90
2019-02-26T14:34:11.793Z,18.10
2019-02-26T14:36:43.326Z,18.00
2019-02-26T14:39:13.526Z,17.80
2019-02-26T14:41:43.096Z,17.70
2019-02-26T14:44:12.666Z,17.80
2019-02-26T14:46:42.882Z,17.80
2019-02-26T14:49:12.459Z,17.50
2019-02-26T14:51:44.889Z,17.60
2019-02-26T14:54:17.109Z,17.50
2019-02-26T14:56:46.673Z,17.50
2019-02-26T14:59:16.242Z,17.60
2019-02-26T15:01:48.843Z,17.50
2019-02-26T15:04:18.396Z,17.40
2019-02-26T15:06:48.255Z,17.50
2019-02-26T15:09:17.855Z,17.40
2019-02-26T15:11:47.730Z,17.40
2019-02-26T15:14:17.747Z,17.30
2019-02-26T15:16:47.486Z,17.30
2019-02-26T15:19:17.209Z,17.30
2019-02-26T15:21:47.290Z,17.40
2019-02-26T15:24:20.145Z,17.40
2019-02-26T15:26:49.780Z,17.20
2019-02-26T15:29:19.629Z,17.30
2019-02-26T15:31:49.231Z,17.30
2019-02-26T15:34:20.350Z,14.00
2019-02-26T15:36:50.194Z,17.10
2019-02-26T15:39:19.917Z,17.00
2019-02-26T15:41:50.558Z,17.00
2019-02-26T15:44:20.468Z,17.00
2019-02-26T15:46:50.065Z,16.90
2019-02-26T15:49:22.121Z,16.90
2019-02-26T15:51:51.963Z,16.90
2019-02-26T15:54:21.565Z,16.90
2019-02-26T15:56:51.326Z,16.80
2019-02-26T15:59:21.177Z,16.70
2019-02-26T16:01:50.869Z,16.70
2019-02-26T16:04:23.414Z,16.70
2019-02-26T16:06:53.380Z,16.60
2019-02-26T16:09:32.975Z,16.60
2019-02-26T16:12:03.367Z,16.50
2019-02-26T16:14:40.426Z,16.40
2019-02-26T16:17:10.239Z,16.40
2019-02-26T16:19:43.689Z,16.20
2019-02-26T16:22:13.519Z,16.20
2019-02-26T16:24:43.170Z,16.10
2019-02-26T16:27:12.726Z,16.00
2019-02-26T16:29:42.324Z,15.90
2019-02-26T16:32:12.145Z,15.80
2019-02-26T16:34:43.049Z,15.70
2019-02-26T16:37:12.977Z,15.50
2019-02-26T16:39:42.850Z,15.30
2019-02-26T16:42:12.413Z,15.20
2019-02-26T16:44:42.297Z,15.10
2019-02-26T16:47:12.619Z,14.90
2019-02-26T16:49:43.082Z,14.90
2019-02-26T16:52:12.943Z,14.80
2019-02-26T16:54:45.408Z,14.70
2019-02-26T16:57:15.293Z,14.50
2019-02-26T16:59:44.941Z,14.50
2019-02-26T17:02:15.003Z,14.40
2019-02-26T17:04:44.582Z,14.20
2019-02-26T17:07:14.558Z,14.00
2019-02-26T17:09:44.122Z,13.60
2019-02-26T17:12:13.699Z,13.80
2019-02-26T17:14:44.265Z,13.70
2019-02-26T17:17:14.033Z,13.40
2019-02-26T17:19:43.647Z,13.40
2019-02-26T17:22:13.565Z,13.40
2019-02-26T17:24:43.141Z,13.20
2019-02-26T17:27:12.918Z,13.10
2019-02-26T17:29:43.142Z,13.10
2019-02-26T17:32:13.610Z,12.80
2019-02-26T17:34:43.174Z,12.70
2019-02-26T17:37:17.788Z,12.60
2019-02-26T17:39:47.385Z,12.60
2019-02-26T17:42:17.812Z,12.40
2019-02-26T17:44:48.454Z,12.50
2019-02-26T17:49:47.274Z,12.10
2019-02-26T17:52:17.159Z,12.00
2019-02-26T17:54:49.248Z,11.80
2019-02-26T17:57:18.896Z,11.70
2019-02-26T17:59:49.185Z,11.70
2019-02-26T18:02:27.381Z,11.70
2019-02-26T18:04:58.490Z,11.60
2019-02-26T18:07:28.019Z,11.50
2019-02-26T18:09:57.594Z,11.50
2019-02-26T18:12:27.525Z,11.50
2019-02-26T18:14:59.600Z,11.40
2019-02-26T18:17:29.195Z,11.50
2019-02-26T18:19:59.926Z,11.50
2019-02-26T18:22:29.533Z,11.60
2019-02-26T18:25:00.320Z,11.60
2019-02-26T18:27:31.628Z,11.60
2019-02-26T18:30:01.177Z,11.50
2019-02-26T18:32:30.844Z,11.40
2019-02-26T18:35:00.492Z,11.30
2019-02-26T18:37:30.218Z,11.90
2019-02-26T18:40:00.238Z,11.10
2019-02-26T18:42:32.132Z,11.10
2019-02-26T18:45:01.710Z,11.00
2019-02-26T18:47:31.282Z,10.90
2019-02-26T18:50:00.882Z,10.90
2019-02-26T18:52:30.941Z,10.80
2019-02-26T18:55:00.559Z,10.80
2019-02-26T18:59:59.412Z,10.80
2019-02-26T19:05:00.714Z,10.70
2019-02-26T19:15:02.654Z,10.80
2019-02-26T19:17:32.413Z,10.80
2019-02-26T19:22:31.595Z,10.70
2019-02-26T19:27:31.421Z,11.30
2019-02-26T19:35:01.896Z,10.50
2019-02-26T19:37:32.038Z,10.50
2019-02-26T19:40:05.671Z,10.40
2019-02-26T19:42:32.861Z,10.30
2019-02-26T19:50:00.782Z,10.10
2019-02-26T19:52:30.706Z,10.10
2019-02-26T19:57:30.222Z,10.10
2019-02-26T20:02:31.670Z,10.00
2019-02-26T20:12:32.495Z,9.70
2019-02-26T20:15:02.530Z,9.70
2019-02-26T20:20:04.955Z,9.70
2019-02-26T20:22:33.414Z,9.60
2019-02-26T20:25:03.183Z,9.80
2019-02-26T20:27:32.826Z,9.70
2019-02-26T20:32:32.209Z,9.70
2019-02-26T20:35:01.817Z,9.70
2019-02-26T20:37:32.147Z,9.70
2019-02-26T20:40:01.787Z,9.70
2019-02-26T20:47:31.619Z,9.60
2019-02-26T20:50:01.913Z,9.60
2019-02-26T20:52:32.874Z,9.50
2019-02-26T20:55:03.533Z,9.40
2019-02-26T20:57:34.910Z,9.40
2019-02-26T21:00:05.279Z,9.50
2019-02-26T21:02:34.907Z,9.40
2019-02-26T21:05:04.780Z,9.50
2019-02-26T21:12:36.512Z,9.90
2019-02-26T21:17:40.764Z,9.20
2019-02-26T21:30:12.720Z,8.60
2019-02-26T21:32:43.377Z,8.60
2019-02-26T21:35:13.529Z,9.20
2019-02-26T21:37:43.270Z,8.60
2019-02-26T21:40:15.873Z,8.50
2019-02-26T21:42:46.012Z,8.50
2019-02-26T21:47:46.717Z,8.40
2019-02-26T21:52:59.116Z,8.40
2019-02-26T21:55:17.997Z,8.30
2019-02-26T21:57:47.914Z,8.30
2019-02-26T22:00:17.770Z,8.20
2019-02-26T22:02:51.786Z,8.30
2019-02-26T22:05:18.692Z,8.20
2019-02-26T22:07:51.969Z,8.30
2019-02-26T22:10:19.776Z,8.30
2019-02-26T22:15:18.630Z,8.30
2019-02-26T22:20:23.711Z,8.30
2019-02-26T22:22:49.321Z,8.40
2019-02-26T22:25:19.202Z,8.40
2019-02-26T22:30:22.044Z,8.50
2019-02-26T22:32:50.616Z,9.10
2019-02-26T22:35:20.213Z,8.40
2019-02-26T22:37:49.781Z,8.00
2019-02-26T22:40:19.801Z,7.80
2019-02-26T22:42:49.448Z,7.70
2019-02-26T22:45:19.085Z,8.40
2019-02-26T22:47:48.909Z,7.30
2019-02-26T22:50:18.647Z,7.20
2019-02-26T22:52:48.241Z,7.10
2019-02-26T22:55:18.108Z,7.10
2019-02-26T22:57:47.766Z,7.10
2019-02-26T23:00:49.557Z,8.10
2019-02-26T23:03:19.770Z,8.30
2019-02-26T23:05:49.475Z,7.30
2019-02-26T23:08:19.315Z,7.10
2019-02-26T23:10:48.937Z,7.10
2019-02-26T23:13:20.393Z,7.10
2019-02-26T23:15:50.844Z,7.10
2019-02-26T23:18:21.333Z,7.20
2019-02-26T23:20:51.051Z,7.20
2019-02-26T23:23:21.964Z,7.20
2019-02-26T23:25:51.973Z,6.30
2019-02-26T23:28:22.875Z,7.20
2019-02-26T23:30:52.478Z,7.40
2019-02-26T23:35:54.836Z,7.30
2019-02-26T23:38:22.669Z,7.10
2019-02-26T23:43:21.513Z,7.20
2019-02-26T23:48:20.288Z,7.10
2019-02-26T23:50:49.869Z,7.00
2019-02-26T23:53:19.474Z,7.10
2019-02-26T23:55:50.285Z,7.20
